Waverly, Kentucky
Current Conditions -  °F | °C
As of 9:54 AM on Tuesday 21 Oct 2014 (Local Time) from KEVV Reporting Station
Clear Clear  
Wind Chill: 58°   Ceiling: Unl
Heat Index: 58°   Visibility: 10mi
Dew Point: 46°   Wind: 9mph
Humidity: 65%   Direction: 30°NNE
Pressure: 30.1"   Gusts: NA
Location:  37.71°N, 87.81°W
Report Text: KEVV 211454Z 03008KT 10SM CLR 14/08 A3010 RMK AO2 SLP190 T01440078 51016
Loading
Personal Weather Stations






























Interactive Weather Map
Tropical Storm Tracking
New forecast layout! Learn more

10-Day Weather Forecast

Advertisements
Track Severe Weather on mobile